»·PEaware :: VIPER17 KLSV-KSBP

VIPER17 :: KLSV-KSBP

FLIGHT INFORMATION

Flight Status: Arrived
Operator: Unknown
More flights by this operator :: More flights under this callsign
Pilot: Kevin M. (7)
Aircraft: GENERAL DYNAMICS F-16 FIGHTING FALCON
(F16)
More flights by this aircraft type
Origin: KLSV Nellis AFB
United States
Destination: KSBP San Luis Co Regl
United States
More flights between these airports :: More routes between these airports
Route: +MMM6 MMM BOACH HEC PMD RZS MQO
File this flight plan on PilotEdge
Remarks:
Altitude:
(Current/Filed)
47,000ft
Speed:
(Current/Filed)
555kts
Departed: 07-Nov-19 01:44 PM
Arrived: 07-Nov-19 02:33 PM
Distance/Time
Traveled:
280nm/0:49
Distance/Time
To Go:
Arrived

Flight Plot

Page will automatically refresh every two minutes.

Flight plan parsing failed; only flown route is shown


Map Options




Map Legend


Flown Route
Filed Route
Departure Airport
Arrival Airport
Navaid (VOR, NDB)
Fix

Horizontal Profiles

Position Reports

Time Latitude Longitude Heading Altitude Ground
Speed
07-Nov-19 13:27 36.228499 -115.048513 226 1843ft 0kts
07-Nov-19 13:28 36.228499 -115.048513 226 1843ft 0kts
07-Nov-19 13:29 36.228499 -115.048513 226 1843ft 0kts
07-Nov-19 13:30 36.228499 -115.048513 226 1843ft 0kts
07-Nov-19 13:32 36.228499 -115.048513 226 1843ft 0kts
07-Nov-19 13:33 36.228499 -115.048513 226 1843ft 0kts
07-Nov-19 13:34 36.228499 -115.048513 226 1843ft 0kts
07-Nov-19 13:35 36.228499 -115.048513 226 1843ft 0kts
07-Nov-19 13:36 36.228499 -115.048513 226 1843ft 0kts
07-Nov-19 13:37 36.228499 -115.048513 226 1843ft 0kts
07-Nov-19 13:38 36.228499 -115.048513 226 1843ft 0kts
07-Nov-19 13:39 36.228499 -115.048513 226 1843ft 0kts
07-Nov-19 13:40 36.228499 -115.048513 226 1843ft 0kts
07-Nov-19 13:41 36.228499 -115.048513 226 1843ft 0kts
07-Nov-19 13:42 36.228102 -115.048157 128 1841ft 0kts
07-Nov-19 13:43 36.226907 -115.046856 124 1838ft 0kts
07-Nov-19 13:44 36.248653 -115.024578 39 11441ft 240kts
07-Nov-19 13:45 36.335974 -114.940485 37 19626ft 573kts
07-Nov-19 13:46 36.375424 -114.779249 121 24139ft 552kts
07-Nov-19 13:47 36.221677 -114.713317 192 30036ft 579kts
07-Nov-19 13:48 36.091763 -114.812389 226 32020ft 568kts
07-Nov-19 13:48 35.998805 -114.921420 226 33595ft 542kts
07-Nov-19 13:50 35.871712 -115.069942 226 35481ft 544kts
07-Nov-19 13:51 35.760945 -115.198837 225 36965ft 551kts
07-Nov-19 13:51 35.668822 -115.308007 228 38186ft 556kts
07-Nov-19 13:53 35.547510 -115.470619 229 39918ft 552kts
07-Nov-19 13:54 35.444176 -115.608990 229 41394ft 549kts
07-Nov-19 13:54 35.358634 -115.723109 228 42616ft 550kts
07-Nov-19 13:55 35.254734 -115.861224 228 44066ft 573kts
07-Nov-19 13:57 35.118771 -116.041085 228 45190ft 615kts
07-Nov-19 13:57 35.027932 -116.160705 228 45111ft 557kts
07-Nov-19 13:58 34.925441 -116.295206 229 45223ft 531kts
07-Nov-19 13:59 34.830327 -116.420016 233 45207ft 508kts
07-Nov-19 14:00 34.785858 -116.577583 262 45202ft 508kts
07-Nov-19 14:01 34.769043 -116.748937 261 45215ft 509kts
07-Nov-19 14:02 34.752022 -116.919389 261 45216ft 510kts
07-Nov-19 14:03 34.734445 -117.092878 261 45213ft 526kts
07-Nov-19 14:04 34.716456 -117.267972 262 45037ft 516kts
07-Nov-19 14:05 34.697448 -117.450414 262 45291ft 585kts
07-Nov-19 14:06 34.679262 -117.622321 261 45241ft 478kts
07-Nov-19 14:07 34.662783 -117.776081 261 45196ft 441kts
07-Nov-19 14:08 34.647046 -117.921220 261 45198ft 429kts
07-Nov-19 14:09 34.631472 -118.066522 263 45215ft 444kts
07-Nov-19 14:10 34.621384 -118.218277 264 45216ft 458kts
07-Nov-19 14:11 34.611129 -118.373074 264 45207ft 465kts
07-Nov-19 14:12 34.600510 -118.530303 264 45173ft 469kts
07-Nov-19 14:13 34.589731 -118.686944 263 45154ft 471kts
07-Nov-19 14:14 34.578590 -118.845440 265 45150ft 471kts
07-Nov-19 14:15 34.567232 -119.004861 266 45122ft 480kts
07-Nov-19 14:16 34.557436 -119.139580 266 45128ft 490kts
07-Nov-19 14:17 34.544767 -119.311188 265 45080ft 577kts
07-Nov-19 14:18 34.530432 -119.501121 265 45136ft 562kts
07-Nov-19 14:19 34.516640 -119.689854 273 45137ft 559kts
07-Nov-19 14:20 34.574010 -119.858268 317 45135ft 576kts
07-Nov-19 14:21 34.673122 -119.982588 306 13106ft 629kts
07-Nov-19 14:22 34.744131 -120.079825 312 11740ft 315kts
07-Nov-19 14:23 34.798646 -120.152289 312 8978ft 291kts
07-Nov-19 14:24 34.852603 -120.224014 313 7876ft 283kts
07-Nov-19 14:25 34.905292 -120.294066 313 6775ft 278kts
07-Nov-19 14:26 34.961808 -120.356961 320 5679ft 273kts
07-Nov-19 14:27 35.018559 -120.415664 319 4569ft 262kts
07-Nov-19 14:28 35.078379 -120.465209 333 4046ft 262kts
07-Nov-19 14:29 35.145501 -120.503404 332 3842ft 265kts
07-Nov-19 14:30 35.195293 -120.566380 301 1658ft 258kts
07-Nov-19 14:31 35.226616 -120.621903 305 540ft 168kts
07-Nov-19 14:32 35.242510 -120.648736 34 158ft 22kts
07-Nov-19 14:33 35.240646 -120.644601 82 179ft 2kts
07-Nov-19 14:34 35.240731 -120.644455 32 179ft 0kts
07-Nov-19 14:35 35.240731 -120.644455 32 179ft 0kts

Navigation Log

Ident Type
Flight plan parsing failed, navigation log unavailable